Time;durP1;ratioP1;P1;durP2;ratioP2;P2;SDS_P1;SDS_P2;PMS_P1;PMS_P2;Temp;Humidity;BMP_temperature;BMP_pressure;BME280_temperature;BME280_humidity;BME280_pressure;Samples;Min_cycle;Max_cycle;Signal;HPM_P1;HPM_P2
2022/10/29 00:00:41;;;;;;;20.30;14.02;;;;;;;11.51;100.00;101339.31;5010878;28;20091;-71
2022/10/29 00:03:07;;;;;;;21.27;14.25;;;;;;;11.31;100.00;101358.16;5009281;28;20037;-72
2022/10/29 00:05:33;;;;;;;18.73;14.70;;;;;;;10.70;100.00;101284.84;5009375;28;20492;-71
2022/10/29 00:07:59;;;;;;;22.13;14.80;;;;;;;11.07;100.00;101353.25;5009088;28;20129;-71
2022/10/29 00:10:25;;;;;;;21.80;14.30;;;;;;;11.12;100.00;101350.69;5010517;28;20063;-71
2022/10/29 00:12:51;;;;;;;27.58;14.32;;;;;;;10.85;100.00;101339.03;5012209;28;20033;-72
2022/10/29 00:15:16;;;;;;;22.42;13.50;;;;;;;10.85;100.00;101351.75;5014637;28;20061;-71
2022/10/29 00:17:42;;;;;;;19.83;13.90;;;;;;;10.97;100.00;101353.38;5014355;28;20029;-71
2022/10/29 00:20:08;;;;;;;21.90;14.10;;;;;;;10.78;100.00;101329.75;5014036;28;20038;-71
2022/10/29 00:22:34;;;;;;;24.38;13.95;;;;;;;10.74;100.00;101319.59;5014838;28;20072;-72
2022/10/29 00:24:59;;;;;;;18.75;12.95;;;;;;;10.64;100.00;101256.94;5014241;28;20089;-72
2022/10/29 00:27:25;;;;;;;20.88;12.45;;;;;;;10.65;100.00;101284.06;5014206;28;20034;-71
2022/10/29 00:29:50;;;;;;;19.02;12.38;;;;;;;10.57;100.00;101251.06;5014077;28;20482;-71
2022/10/29 00:32:16;;;;;;;18.30;12.60;;;;;;;10.72;100.00;101280.59;5013182;28;20531;-71
2022/10/29 00:34:41;;;;;;;22.95;13.57;;;;;;;10.68;100.00;101291.66;5012996;28;20507;-72
2022/10/29 00:37:06;;;;;;;23.33;14.23;;;;;;;10.76;100.00;101317.88;5012723;28;20026;-71
2022/10/29 00:39:33;;;;;;;20.92;13.07;;;;;;;10.35;100.00;101324.09;5013935;28;20030;-72
2022/10/29 00:41:59;;;;;;;16.92;12.93;;;;;;;10.98;100.00;101334.69;5012967;28;20068;-73
2022/10/29 00:44:29;;;;;;;17.67;12.80;;;;;;;10.37;100.00;101246.13;5012422;28;20050;-71
2022/10/29 00:46:57;;;;;;;19.35;12.77;;;;;;;10.31;100.00;101243.63;5014583;28;20030;-71
2022/10/29 00:49:24;;;;;;;18.75;12.93;;;;;;;10.38;100.00;101259.66;5012298;28;20455;-71
2022/10/29 00:51:50;;;;;;;22.40;13.90;;;;;;;10.70;100.00;101323.00;5013839;28;20038;-71
2022/10/29 00:54:16;;;;;;;18.27;13.98;;;;;;;10.51;100.00;101258.75;5013682;28;20030;-71
2022/10/29 00:57:07;;;;;;;22.17;13.25;;;;;;;10.10;100.00;101197.19;5013724;28;20026;-71
2022/10/29 00:59:32;;;;;;;24.17;13.32;;;;;;;10.57;100.00;101312.09;5004152;28;20049;-71
2022/10/29 01:01:58;;;;;;;18.20;12.95;;;;;;;10.40;100.00;101253.72;5013779;28;20033;-72
2022/10/29 01:04:24;;;;;;;18.30;13.00;;;;;;;10.27;100.00;101248.72;5013532;28;20022;-71
2022/10/29 01:06:50;;;;;;;19.73;12.70;;;;;;;10.16;100.00;101189.50;5013506;28;20026;-71
2022/10/29 01:09:16;;;;;;;16.13;12.73;;;;;;;10.40;100.00;101293.53;5013210;28;20030;-72
2022/10/29 01:12:27;;;;;;;20.30;12.10;;;;;;;10.63;100.00;101308.66;5013626;28;20030;-71
2022/10/29 01:14:58;;;;;;;18.67;13.07;;;;;;;10.34;100.00;101327.47;4976612;28;20043;-71
2022/10/29 01:17:29;;;;;;;17.55;12.15;;;;;;;10.87;100.00;101313.56;5013841;28;20077;-72
2022/10/29 01:20:12;;;;;;;18.48;12.52;;;;;;;10.62;100.00;101240.88;5012117;28;20072;-72
2022/10/29 01:23:02;;;;;;;18.17;11.93;;;;;;;10.44;100.00;101260.47;5013130;28;20072;-73
2022/10/29 01:25:52;;;;;;;18.05;12.98;;;;;;;10.60;100.00;101304.44;5013891;28;20025;-72
2022/10/29 01:28:51;;;;;;;25.58;13.00;;;;;;;10.64;100.00;101305.25;5013152;28;20029;-70
2022/10/29 01:31:28;;;;;;;20.67;11.98;;;;;;;10.57;100.00;101301.91;5013322;28;20030;-72
2022/10/29 01:34:04;;;;;;;16.05;12.55;;;;;;;10.71;100.00;101299.28;5012738;28;20048;-72
2022/10/29 01:36:43;;;;;;;18.88;12.32;;;;;;;10.92;100.00;101305.03;5012904;28;20030;-72
2022/10/29 01:39:21;;;;;;;17.08;12.38;;;;;;;10.32;100.00;101290.19;5013064;28;20048;-72
2022/10/29 01:41:49;;;;;;;15.55;11.88;;;;;;;10.71;100.00;101291.66;5013080;28;20083;-72
2022/10/29 01:44:24;;;;;;;17.23;12.55;;;;;;;10.22;100.00;101284.31;5013245;28;20117;-72
2022/10/29 01:47:15;;;;;;;21.92;14.35;;;;;;;10.29;100.00;101291.09;5011673;28;20028;-72
2022/10/29 01:49:53;;;;;;;21.55;13.95;;;;;;;10.05;100.00;101295.41;5004094;28;20133;-71
2022/10/29 01:52:21;;;;;;;21.10;14.98;;;;;;;9.22;100.00;101167.09;5012711;28;20026;-71
2022/10/29 01:54:47;;;;;;;22.52;14.65;;;;;;;9.47;100.00;101170.38;5012167;28;20034;-71
2022/10/29 01:57:28;;;;;;;18.17;14.10;;;;;;;10.22;100.00;101270.81;5012161;28;20501;-70
2022/10/29 02:00:15;;;;;;;14.50;9.35;;;;;;;10.22;100.00;101271.63;5011033;28;20132;-70
2022/10/29 02:03:11;;;;;;;17.90;13.57;;;;;;;10.44;100.00;101282.50;5012123;28;20034;-70
2022/10/29 02:05:36;;;;;;;23.50;13.82;;;;;;;10.18;100.00;101280.13;5012409;28;20033;-70
2022/10/29 02:08:13;;;;;;;19.08;13.00;;;;;;;10.31;100.00;101283.44;5011975;28;20065;-70
2022/10/29 02:11:00;;;;;;;21.98;14.45;;;;;;;10.17;100.00;101278.44;5012421;28;20030;-70
2022/10/29 02:13:37;;;;;;;17.95;13.25;;;;;;;10.31;100.00;101278.34;5012244;28;20065;-71
2022/10/29 02:16:05;;;;;;;19.80;13.68;;;;;;;10.37;100.00;101261.38;5020145;28;20412;-72
2022/10/29 02:18:39;;;;;;;17.63;12.90;;;;;;;10.00;100.00;101210.75;5032618;28;20036;-70
2022/10/29 02:21:05;;;;;;;19.17;13.07;;;;;;;10.54;100.00;101268.88;5029335;28;20159;-71
2022/10/29 02:23:30;;;;;;;16.42;12.77;;;;;;;9.97;100.00;101203.13;5023268;28;20033;-70
2022/10/29 02:25:56;;;;;;;20.08;13.13;;;;;;;9.91;100.00;101224.34;5021071;28;20077;-71
2022/10/29 02:28:21;;;;;;;18.60;13.27;;;;;;;9.80;100.00;101215.09;5011175;28;20412;-71
2022/10/29 02:30:46;;;;;;;17.35;12.80;;;;;;;9.99;100.00;101226.84;5011953;28;20045;-69
2022/10/29 02:33:12;;;;;;;19.02;14.07;;;;;;;9.79;100.00;101264.19;5011871;28;20026;-71
2022/10/29 02:35:37;;;;;;;19.92;13.80;;;;;;;9.33;100.00;101233.88;5011221;28;20036;-73
2022/10/29 02:38:02;;;;;;;21.17;14.13;;;;;;;8.99;100.00;101145.19;5011880;28;20034;-71
2022/10/29 02:40:28;;;;;;;20.08;14.90;;;;;;;9.58;100.00;101260.03;5011521;28;20416;-70
2022/10/29 02:42:53;;;;;;;22.65;15.50;;;;;;;9.26;100.00;101246.59;5010328;28;20105;-71
2022/10/29 02:45:19;;;;;;;23.38;15.27;;;;;;;9.07;100.00;101200.09;5010175;28;20061;-71
2022/10/29 02:47:44;;;;;;;18.42;15.02;;;;;;;9.13;100.00;101207.72;5011492;28;20109;-70
2022/10/29 02:50:09;;;;;;;23.80;16.15;;;;;;;8.73;100.00;101170.59;5011873;28;20037;-71
2022/10/29 02:52:35;;;;;;;25.67;15.98;;;;;;;8.65;100.00;101220.47;5011917;28;20620;-70
2022/10/29 02:55:00;;;;;;;20.30;15.48;;;;;;;9.20;100.00;101231.38;5011086;28;20084;-70
2022/10/29 02:57:26;;;;;;;22.77;17.05;;;;;;;8.62;100.00;101206.09;5011551;28;20041;-70
2022/10/29 02:59:51;;;;;;;22.40;17.05;;;;;;;8.76;100.00;101259.31;5011109;28;20096;-69
2022/10/29 03:02:16;;;;;;;25.27;16.83;;;;;;;8.67;100.00;101208.63;5011706;28;20117;-70
2022/10/29 03:04:43;;;;;;;24.00;17.25;;;;;;;8.75;100.00;101209.47;5011441;28;20034;-70
2022/10/29 03:07:09;;;;;;;23.40;17.67;;;;;;;9.25;100.00;101260.97;5011201;28;20065;-71
2022/10/29 03:09:34;;;;;;;24.83;17.45;;;;;;;8.99;100.00;101244.97;5011434;28;20044;-71
2022/10/29 03:12:00;;;;;;;23.50;17.33;;;;;;;8.90;100.00;101236.50;5009786;28;20025;-72
2022/10/29 03:14:25;;;;;;;21.70;13.82;;;;;;;12.04;100.00;101224.91;5012539;28;20708;-69
2022/10/29 03:16:50;;;;;;;31.17;17.65;;;;;;;9.59;100.00;101232.09;5014793;28;20049;-70
2022/10/29 03:19:16;;;;;;;21.98;17.10;;;;;;;9.83;100.00;101251.47;5030619;28;20037;-70
2022/10/29 03:21:41;;;;;;;24.52;16.17;;;;;;;9.09;100.00;101131.63;5030454;28;20467;-69
2022/10/29 03:24:07;;;;;;;20.77;16.60;;;;;;;9.27;100.00;101192.47;5030571;28;20033;-69
2022/10/29 03:26:32;;;;;;;19.98;14.90;;;;;;;9.90;100.00;101257.38;5015118;28;20473;-69
2022/10/29 03:28:57;;;;;;;20.65;15.60;;;;;;;9.70;100.00;101249.84;5012660;28;20049;-68
2022/10/29 03:31:23;;;;;;;21.00;15.07;;;;;;;9.76;100.00;101206.66;5009552;28;20468;-69
2022/10/29 03:33:48;;;;;;;21.45;16.65;;;;;;;8.69;100.00;101192.56;5011280;28;20049;-69
2022/10/29 03:36:14;;;;;;;21.70;16.70;;;;;;;8.64;100.00;101168.06;5010671;28;20124;-69
2022/10/29 03:38:39;;;;;;;24.77;17.35;;;;;;;8.93;100.00;101233.97;5017065;28;20511;-69
2022/10/29 03:41:09;;;;;;;22.85;16.35;;;;;;;9.10;100.00;101222.94;5029072;28;20030;-68
2022/10/29 03:43:38;;;;;;;22.25;16.75;;;;;;;9.15;100.00;101169.66;5016454;28;20449;-67
2022/10/29 03:46:05;;;;;;;24.33;17.75;;;;;;;8.65;100.00;101172.31;5022798;28;20049;-68
2022/10/29 03:48:30;;;;;;;22.95;16.77;;;;;;;9.51;100.00;101212.66;5018198;28;20041;-68
2022/10/29 03:51:01;;;;;;;26.52;16.48;;;;;;;9.57;100.00;101243.97;5010626;28;20088;-69
2022/10/29 03:53:27;;;;;;;27.83;16.67;;;;;;;9.17;100.00;101160.38;5010121;28;20128;-69
2022/10/29 03:55:54;;;;;;;31.58;16.90;;;;;;;9.53;100.00;101236.34;5009105;28;20484;-70
2022/10/29 03:58:20;;;;;;;28.10;17.25;;;;;;;9.01;100.00;101163.78;5010516;28;20030;-70
2022/10/29 04:01:00;;;;;;;26.52;16.85;;;;;;;9.31;100.00;101229.69;5010183;28;20484;-69
2022/10/29 04:03:28;;;;;;;26.05;18.15;;;;;;;9.01;100.00;101232.28;5008613;28;20045;-70
2022/10/29 04:05:54;;;;;;;23.00;17.48;;;;;;;8.76;100.00;101173.13;5004190;28;20034;-69
2022/10/29 04:08:19;;;;;;;29.00;16.42;;;;;;;8.14;100.00;101162.97;5048580;28;20119;-70
2022/10/29 04:10:46;;;;;;;20.92;15.13;;;;;;;8.14;100.00;101152.81;5048390;28;20437;-70
2022/10/29 04:13:13;;;;;;;19.02;15.40;;;;;;;8.45;100.00;101222.13;5048679;28;20106;-69
2022/10/29 04:15:38;;;;;;;18.75;15.10;;;;;;;8.19;100.00;101171.41;5049265;28;20025;-69
2022/10/29 04:18:04;;;;;;;18.88;15.32;;;;;;;8.46;100.00;101206.94;5048384;28;20455;-70
2022/10/29 04:20:29;;;;;;;23.00;17.17;;;;;;;8.18;100.00;101167.19;5049595;28;20086;-70
2022/10/29 04:22:55;;;;;;;22.25;16.92;;;;;;;8.18;100.00;101144.38;5047386;28;20033;-70
2022/10/29 04:25:20;;;;;;;27.08;19.60;;;;;;;8.31;100.00;101214.53;5047067;28;20065;-70
2022/10/29 04:27:46;;;;;;;26.55;19.88;;;;;;;7.86;100.00;101184.84;5049221;28;20120;-69
2022/10/29 04:30:11;;;;;;;26.23;20.58;;;;;;;7.75;100.00;101200.84;5049009;28;20025;-69
2022/10/29 04:32:37;;;;;;;28.92;21.50;;;;;;;7.34;100.00;101192.28;5049277;28;20462;-70
2022/10/29 04:35:02;;;;;;;30.17;21.60;;;;;;;7.42;100.00;101171.25;5048657;28;20064;-69
2022/10/29 04:37:28;;;;;;;32.10;21.27;;;;;;;7.61;100.00;101172.13;5049204;28;20112;-70
2022/10/29 04:39:54;;;;;;;33.25;23.60;;;;;;;7.27;100.00;101220.91;5049505;28;20021;-70
2022/10/29 04:42:19;;;;;;;35.00;24.95;;;;;;;7.26;100.00;101191.38;5049555;28;20155;-70
2022/10/29 04:44:45;;;;;;;40.97;25.90;;;;;;;7.48;100.00;101262.34;5049368;28;20045;-70
2022/10/29 04:47:10;;;;;;;60.72;26.33;;;;;;;7.01;100.00;101183.66;5047878;28;20679;-70
2022/10/29 04:49:35;;;;;;;73.43;25.88;;;;;;;7.32;100.00;101229.34;5049035;28;20033;-70
2022/10/29 04:52:01;;;;;;;115.03;25.70;;;;;;;6.87;100.00;101176.84;5049460;28;20107;-70
2022/10/29 04:54:26;;;;;;;61.00;23.75;;;;;;;6.66;100.00;101159.84;5049326;28;20032;-70
2022/10/29 04:56:52;;;;;;;68.20;22.55;;;;;;;6.93;100.00;101224.91;5049092;28;20033;-70
2022/10/29 04:59:17;;;;;;;63.38;22.83;;;;;;;6.52;100.00;101108.38;5040865;28;20034;-70
2022/10/29 05:01:43;;;;;;;44.33;23.25;;;;;;;7.19;100.00;101222.56;5027241;28;20510;-70
2022/10/29 05:04:08;;;;;;;88.18;22.73;;;;;;;7.18;100.00;101223.38;5032069;28;20022;-70
2022/10/29 05:06:34;;;;;;;38.03;21.58;;;;;;;6.51;100.00;101128.59;5033081;28;20523;-70
2022/10/29 05:08:59;;;;;;;37.95;19.83;;;;;;;7.48;100.00;101229.44;5032677;28;20021;-70
2022/10/29 05:11:24;;;;;;;31.95;19.20;;;;;;;7.10;100.00;101176.97;5032514;28;20056;-72
2022/10/29 05:13:50;;;;;;;31.33;17.00;;;;;;;7.26;100.00;101235.22;5025492;28;20068;-70
2022/10/29 05:16:15;;;;;;;23.80;17.17;;;;;;;7.28;100.00;101241.16;5021032;28;20038;-70
2022/10/29 05:18:41;;;;;;;22.83;16.50;;;;;;;7.27;100.00;101167.81;5039521;28;20024;-70
2022/10/29 05:21:06;;;;;;;23.17;15.38;;;;;;;7.61;100.00;101198.28;5052367;28;20029;-71
2022/10/29 05:23:32;;;;;;;21.73;15.70;;;;;;;7.52;100.00;101177.16;5052268;28;20025;-70
2022/10/29 05:25:57;;;;;;;22.40;15.98;;;;;;;7.80;100.00;101227.06;5052612;28;20134;-69
2022/10/29 05:28:24;;;;;;;21.60;15.00;;;;;;;7.46;100.00;101175.47;5052478;28;20020;-69
2022/10/29 05:30:51;;;;;;;21.33;14.55;;;;;;;7.99;100.00;101236.38;5052405;28;20067;-70
2022/10/29 05:33:23;;;;;;;21.27;15.55;;;;;;;8.18;100.00;101243.16;5048088;28;20068;-67
2022/10/29 05:35:49;;;;;;;21.55;14.55;;;;;;;8.30;100.00;101235.63;5012928;28;20568;-67
2022/10/29 05:38:15;;;;;;;21.85;15.32;;;;;;;7.83;100.00;101174.75;5012486;28;20120;-68
2022/10/29 05:40:43;;;;;;;24.77;15.63;;;;;;;7.93;100.00;101231.28;5020917;28;20091;-69
2022/10/29 05:43:12;;;;;;;22.40;14.30;;;;;;;8.53;100.00;101195.13;5024372;28;20080;-70
2022/10/29 05:45:38;;;;;;;25.75;15.65;;;;;;;8.22;100.00;101179.00;5030824;28;20029;-66
2022/10/29 05:48:04;;;;;;;19.73;14.60;;;;;;;8.60;100.00;101252.56;5030944;28;20033;-68
2022/10/29 05:50:30;;;;;;;20.63;15.23;;;;;;;8.05;100.00;101192.50;5031948;28;20040;-72
2022/10/29 05:53:02;;;;;;;23.48;14.73;;;;;;;8.70;100.00;101266.91;5032096;28;20573;-67
2022/10/29 05:55:29;;;;;;;22.95;13.73;;;;;;;10.45;100.00;101264.72;5029424;28;20037;-70
2022/10/29 05:57:59;;;;;;;21.05;12.77;;;;;;;8.66;100.00;101207.78;5032054;28;20037;-69
2022/10/29 06:00:26;;;;;;;21.13;12.18;;;;;;;10.16;100.00;101180.16;5032103;28;20033;-70
2022/10/29 06:02:52;;;;;;;21.00;11.57;;;;;;;11.17;100.00;101232.69;5031696;28;20384;-70
2022/10/29 06:05:18;;;;;;;18.75;11.45;;;;;;;11.52;100.00;101264.59;5031784;28;20060;-70
2022/10/29 06:07:43;;;;;;;16.42;10.38;;;;;;;11.94;100.00;101318.47;5032001;28;20029;-70
2022/10/29 06:10:09;;;;;;;13.82;9.48;;;;;;;11.18;100.00;101239.50;5030196;28;20388;-70
2022/10/29 06:12:34;;;;;;;17.33;10.23;;;;;;;10.82;100.00;101312.75;5029692;28;20065;-70
2022/10/29 06:14:59;;;;;;;16.30;10.80;;;;;;;10.16;100.00;101301.31;5032404;28;20048;-70
2022/10/29 06:17:25;;;;;;;13.68;10.02;;;;;;;9.45;100.00;101188.16;5030419;28;20040;-69
2022/10/29 06:19:51;;;;;;;16.83;10.45;;;;;;;9.43;100.00;101225.38;5030318;28;20480;-70
2022/10/29 06:22:16;;;;;;;12.27;9.95;;;;;;;10.57;100.00;101283.28;5031558;28;20022;-70
2022/10/29 06:24:42;;;;;;;15.05;10.40;;;;;;;10.65;100.00;101284.91;5031799;28;20032;-69
2022/10/29 06:27:07;;;;;;;13.65;10.32;;;;;;;9.86;100.00;101184.59;5031822;28;20496;-68
2022/10/29 06:29:32;;;;;;;16.77;12.88;;;;;;;9.45;100.00;101200.84;5031662;28;20386;-69
2022/10/29 06:31:58;;;;;;;20.05;12.57;;;;;;;10.88;100.00;101280.47;5050738;28;20039;-69
2022/10/29 06:34:23;;;;;;;27.10;17.10;;;;;;;10.76;100.00;101295.84;5051135;28;20029;-70
2022/10/29 06:36:49;;;;;;;27.73;16.60;;;;;;;10.80;100.00;101283.94;5051543;28;20029;-69
2022/10/29 06:39:14;;;;;;;28.27;17.73;;;;;;;10.42;100.00;101258.78;5049610;28;20136;-70
2022/10/29 06:41:39;;;;;;;23.92;15.55;;;;;;;10.80;100.00;101253.41;5051195;28;20040;-70
2022/10/29 06:44:05;;;;;;;21.83;13.60;;;;;;;10.27;100.00;101172.47;5051288;28;20049;-69
2022/10/29 06:46:32;;;;;;;19.77;13.30;;;;;;;11.14;100.00;101293.84;5049934;28;20116;-69
2022/10/29 06:48:58;;;;;;;21.35;14.40;;;;;;;10.58;100.00;101245.13;5030755;28;20121;-68
2022/10/29 06:51:23;;;;;;;19.02;12.95;;;;;;;11.59;100.00;101286.59;5009944;28;20128;-70
2022/10/29 06:53:49;;;;;;;19.42;13.70;;;;;;;11.68;100.00;101292.47;5010001;28;20037;-70
2022/10/29 06:56:14;;;;;;;56.25;13.80;;;;;;;13.28;100.00;101282.47;5009788;28;20478;-70
2022/10/29 06:58:40;;;;;;;42.78;14.65;;;;;;;14.00;100.00;101261.44;5011176;28;20112;-69
2022/10/29 07:01:05;;;;;;;44.50;15.10;;;;;;;13.79;100.00;101313.84;5011254;28;20030;-69
2022/10/29 07:03:30;;;;;;;33.92;14.30;;;;;;;14.35;100.00;101320.38;5009495;28;20029;-68
2022/10/29 07:05:57;;;;;;;22.55;15.35;;;;;;;13.65;100.00;101251.94;5009846;28;20029;-68
2022/10/29 07:08:23;;;;;;;21.80;14.05;;;;;;;13.70;100.00;101265.47;5010938;28;20034;-67
2022/10/29 07:10:50;;;;;;;16.90;11.60;;;;;;;13.06;100.00;101217.31;5009592;28;20072;-68
2022/10/29 07:13:16;;;;;;;12.48;10.13;;;;;;;14.03;100.00;101315.06;5010985;28;20041;-68
2022/10/29 07:15:41;;;;;;;37.95;10.05;;;;;;;12.38;100.00;101282.19;5010787;28;20197;-71
2022/10/29 07:18:08;;;;;;;12.50;8.48;;;;;;;13.50;100.00;101336.56;5013252;28;20099;-68
2022/10/29 07:20:36;;;;;;;19.55;8.02;;;;;;;13.35;100.00;101273.81;5025183;28;20503;-70
2022/10/29 07:23:02;;;;;;;8.57;7.68;;;;;;;13.07;100.00;101334.72;5028795;28;20098;-74
2022/10/29 07:25:28;;;;;;;16.27;7.90;;;;;;;12.22;100.00;101213.59;5030520;28;20033;-73
2022/10/29 07:27:54;;;;;;;11.35;8.07;;;;;;;12.84;100.00;101224.47;5031249;28;20033;-72
2022/10/29 07:30:20;;;;;;;14.45;7.60;;;;;;;13.23;100.00;101265.53;5029029;28;20033;-71
2022/10/29 07:32:45;;;;;;;77.25;10.95;;;;;;;13.30;100.00;101328.41;5028386;28;20037;-70
2022/10/29 07:35:11;;;;;;;67.43;11.68;;;;;;;14.22;100.00;101265.22;5011162;28;20037;-70
2022/10/29 07:37:37;;;;;;;44.10;10.60;;;;;;;13.91;100.00;101314.47;5023678;28;20538;-71
2022/10/29 07:40:03;;;;;;;21.95;12.20;;;;;;;13.03;100.00;101322.03;5009349;28;20026;-70
2022/10/29 07:42:29;;;;;;;27.10;11.63;;;;;;;13.22;100.00;101294.47;5009170;28;20030;-71
2022/10/29 07:44:54;;;;;;;30.50;10.55;;;;;;;14.31;100.00;101249.69;5010503;28;20072;-71
2022/10/29 07:47:20;;;;;;;23.38;13.13;;;;;;;13.73;100.00;101294.38;5008755;28;20029;-73
2022/10/29 07:49:45;;;;;;;17.20;10.07;;;;;;;13.27;100.00;101190.53;5025943;28;20611;-71
2022/10/29 07:52:10;;;;;;;15.25;10.15;;;;;;;13.79;100.00;101294.25;5029263;28;20473;-71
2022/10/29 07:54:39;;;;;;;11.48;9.50;;;;;;;13.13;100.00;101241.88;5013536;28;20034;-75
2022/10/29 07:57:04;;;;;;;23.25;11.80;;;;;;;13.90;100.00;101305.09;5011584;28;20112;-74
2022/10/29 07:59:45;;;;;;;21.52;12.85;;;;;;;12.90;100.00;101218.41;5010237;28;20460;-75
2022/10/29 08:02:20;;;;;;;18.63;11.50;;;;;;;13.68;100.00;101285.13;5026346;28;20061;-75
2022/10/29 08:04:46;;;;;;;17.00;13.02;;;;;;;13.66;100.00;101262.16;5011516;28;20037;-75
2022/10/29 08:07:11;;;;;;;19.17;13.38;;;;;;;13.98;100.00;101291.31;5027065;28;20041;-74
2022/10/29 08:09:37;;;;;;;21.08;12.95;;;;;;;13.07;100.00;101237.72;5030046;28;20030;-74
2022/10/29 08:12:05;;;;;;;18.38;13.05;;;;;;;12.51;100.00;101176.56;5012906;28;20127;-76
2022/10/29 08:14:31;;;;;;;19.95;14.23;;;;;;;12.70;100.00;101230.66;5009624;28;20030;-74
2022/10/29 08:16:56;;;;;;;18.90;13.75;;;;;;;13.53;100.00;101212.13;5011336;28;20045;-74
2022/10/29 08:19:22;;;;;;;22.60;15.90;;;;;;;13.12;100.00;101191.66;5011512;28;20489;-74
2022/10/29 08:21:47;;;;;;;21.30;15.38;;;;;;;14.03;100.00;101266.47;5013716;28;20041;-74
2022/10/29 08:24:13;;;;;;;22.35;16.33;;;;;;;13.61;100.00;101256.25;5029377;28;20021;-74
2022/10/29 08:26:40;;;;;;;27.95;16.13;;;;;;;13.92;100.00;101201.06;5028778;28;20039;-74
2022/10/29 08:29:05;;;;;;;24.60;16.42;;;;;;;14.38;100.00;101262.31;5029703;28;20022;-77
2022/10/29 08:31:30;;;;;;;22.25;14.50;;;;;;;15.05;100.00;101276.91;5026971;28;20041;-75
2022/10/29 08:33:56;;;;;;;22.20;14.05;;;;;;;15.24;100.00;101280.66;5024269;28;20037;-75
2022/10/29 08:36:21;;;;;;;24.83;14.93;;;;;;;14.39;100.00;101288.75;5033737;28;20566;-75
2022/10/29 08:38:47;;;;;;;23.23;16.05;;;;;;;14.23;100.00;101282.25;5033819;28;20110;-75
2022/10/29 08:41:21;;;;;;;26.40;15.60;;;;;;;14.60;100.00;101273.72;5032850;28;20025;-75
2022/10/29 08:43:57;;;;;;;21.38;15.75;;;;;;;14.73;100.00;101276.84;5034431;28;20055;-74
2022/10/29 08:46:40;;;;;;;24.48;15.38;;;;;;;14.98;100.00;101225.84;5033429;28;20116;-73
2022/10/29 08:49:15;;;;;;;21.55;15.82;;;;;;;13.92;100.00;101267.53;5032279;28;20033;-73
2022/10/29 08:51:46;;;;;;;23.35;16.60;;;;;;;13.27;100.00;101170.94;5032813;28;20071;-74
2022/10/29 08:54:14;;;;;;;25.73;16.95;;;;;;;14.01;100.00;101219.63;5034162;28;20032;-74
2022/10/29 08:56:47;;;;;;;23.48;17.30;;;;;;;14.37;100.00;101242.72;5034427;28;20096;-74
2022/10/29 08:59:26;;;;;;;23.40;17.10;;;;;;;14.34;100.00;101152.41;5034199;28;20033;-74
2022/10/29 09:01:52;;;;;;;22.88;16.23;;;;;;;15.11;100.00;101275.91;5034019;28;20029;-74
2022/10/29 09:04:17;;;;;;;25.70;16.52;;;;;;;15.45;100.00;101271.59;5034579;28;20037;-77
2022/10/29 09:07:04;;;;;;;21.50;15.73;;;;;;;15.51;100.00;101266.28;5033383;28;20022;-76
2022/10/29 09:09:37;;;;;;;21.08;16.55;;;;;;;14.75;100.00;101221.31;5033418;28;20116;-75
2022/10/29 09:12:18;;;;;;;23.92;15.73;;;;;;;15.72;100.00;101263.16;5034044;28;20029;-75
2022/10/29 09:15:12;;;;;;;23.35;15.93;;;;;;;16.08;100.00;101259.50;5033968;28;20408;-76
2022/10/29 09:17:49;;;;;;;19.23;14.57;;;;;;;15.94;100.00;101253.09;5033105;28;20143;-75
2022/10/29 09:20:47;;;;;;;20.35;14.43;;;;;;;15.77;100.00;101253.59;5033463;28;20100;-74
2022/10/29 09:23:31;;;;;;;22.85;14.18;;;;;;;15.98;100.00;101237.59;5033851;28;20052;-76
2022/10/29 09:25:56;;;;;;;24.30;15.05;;;;;;;15.22;100.00;101264.50;5032902;28;20029;-74
2022/10/29 09:28:32;;;;;;;20.83;14.45;;;;;;;15.88;100.00;101235.31;5034190;28;20029;-75
2022/10/29 09:31:24;;;;;;;19.63;13.65;;;;;;;16.30;100.00;101241.75;5033952;28;20032;-75
2022/10/29 09:33:52;;;;;;;20.27;13.52;;;;;;;16.15;100.00;101229.34;5031850;28;20036;-74
2022/10/29 09:36:22;;;;;;;19.13;13.65;;;;;;;16.48;100.00;101236.00;5033567;28;20389;-75
2022/10/29 09:38:55;;;;;;;17.65;13.05;;;;;;;15.97;100.00;101199.13;5033089;28;20029;-77
2022/10/29 09:41:23;;;;;;;17.45;12.73;;;;;;;16.79;100.00;101140.84;5034296;28;20029;-76
2022/10/29 09:44:20;;;;;;;24.20;13.65;;;;;;;17.37;100.00;101220.16;5033760;28;20111;-74
2022/10/29 09:46:57;;;;;;;17.35;12.80;;;;;;;17.46;100.00;101230.09;5032348;28;20036;-75
2022/10/29 09:49:54;;;;;;;19.92;14.23;;;;;;;16.25;100.00;101216.22;5032581;28;20029;-76
2022/10/29 09:52:23;;;;;;;22.27;13.73;;;;;;;16.37;100.00;101114.88;5034110;28;20041;-76
2022/10/29 09:54:51;;;;;;;19.45;14.10;;;;;;;16.61;100.00;101214.22;5032306;28;20030;-76
2022/10/29 09:57:25;;;;;;;20.30;14.32;;;;;;;15.96;100.00;101159.84;5033790;28;20037;-77
2022/10/29 10:00:01;;;;;;;20.05;14.15;;;;;;;16.66;100.00;101203.81;5033428;28;20033;-77
2022/10/29 10:02:32;;;;;;;19.02;14.23;;;;;;;17.52;100.00;101193.06;5031509;28;20087;-77
2022/10/29 10:05:05;;;;;;;19.00;13.60;;;;;;;18.33;100.00;101195.00;5031983;28;20040;-76
2022/10/29 10:07:30;;;;;;;20.40;13.20;;;;;;;17.14;100.00;101081.31;5033359;28;20040;-76
2022/10/29 10:09:56;;;;;;;18.55;12.43;;;;;;;18.14;100.00;101183.78;5031259;28;20030;-76
2022/10/29 10:12:46;;;;;;;17.67;12.52;;;;;;;18.63;100.00;101182.66;5028748;28;20492;-76
2022/10/29 10:15:14;;;;;;;18.98;11.73;;;;;;;18.77;100.00;101172.59;5016196;28;20033;-77
2022/10/29 10:18:04;;;;;;;21.02;12.82;;;;;;;18.32;100.00;101167.59;5013399;28;20030;-76
2022/10/29 10:20:38;;;;;;;18.40;12.15;;;;;;;18.91;100.00;101173.69;5003443;28;20052;-75
2022/10/29 10:23:37;;;;;;;16.75;11.38;;;;;;;18.90;100.00;101166.84;5011981;28;20528;-77
2022/10/29 10:26:03;;;;;;;14.95;10.60;;;;;;;18.45;100.00;101114.69;5012477;28;20463;-76
2022/10/29 10:28:30;;;;;;;14.15;10.98;;;;;;;18.96;100.00;101145.97;5011387;28;20117;-76
2022/10/29 10:31:15;;;;;;;20.50;11.40;;;;;;;19.36;100.00;101146.78;5011517;28;20026;-76
2022/10/29 10:33:48;;;;;;;16.00;11.65;;;;;;;19.32;100.00;101148.66;5012818;28;20026;-77
2022/10/29 10:36:15;;;;;;;15.73;10.70;;;;;;;18.86;100.00;101131.81;5015179;28;20029;-73
2022/10/29 10:38:48;;;;;;;17.75;10.45;;;;;;;18.07;100.00;101093.09;5030727;28;20106;-73
2022/10/29 10:41:20;;;;;;;18.02;10.73;;;;;;;19.36;100.00;101133.91;5031475;28;20057;-73
2022/10/29 10:43:46;;;;;;;14.95;10.13;;;;;;;19.10;100.00;101078.31;5031686;28;20573;-71
2022/10/29 10:46:23;;;;;;;14.57;10.35;;;;;;;19.74;100.00;101083.94;5029918;28;20393;-73
2022/10/29 10:49:05;;;;;;;15.18;10.48;;;;;;;19.77;100.00;101128.50;5020715;28;20532;-73
2022/10/29 10:51:38;;;;;;;13.98;9.25;;;;;;;18.50;100.00;101070.72;5010555;28;20053;-72
2022/10/29 10:54:27;;;;;;;21.55;10.00;;;;;;;18.78;100.00;101100.38;5010208;28;20031;-72
2022/10/29 10:57:11;;;;;;;17.98;9.85;;;;;;;19.70;100.00;101113.38;5012925;28;20057;-74
2022/10/29 10:59:45;;;;;;;13.15;9.38;;;;;;;19.68;100.00;101112.63;5012607;28;20036;-74
2022/10/29 11:02:37;;;;;;;13.25;8.65;;;;;;;19.83;100.00;101107.56;5011935;28;20120;-74
2022/10/29 11:05:27;;;;;;;11.65;8.52;;;;;;;18.94;100.00;101039.50;5010722;28;20065;-73
2022/10/29 11:08:06;;;;;;;11.40;8.75;;;;;;;19.30;100.00;101051.63;5011401;28;20392;-73
2022/10/29 11:10:42;;;;;;;11.52;8.90;;;;;;;19.77;100.00;101092.34;5011400;28;20034;-72
2022/10/29 11:13:15;;;;;;;15.05;9.15;;;;;;;19.72;100.00;101054.78;5011459;28;20041;-72
2022/10/29 11:15:49;;;;;;;12.32;8.65;;;;;;;20.52;100.00;101095.50;5026432;28;20030;-73